createdAt,value
2023-05-05T00:01:16.624Z,100384.09
2023-05-05T00:03:43.662Z,100384.28
2023-05-05T00:06:10.754Z,100377.88
2023-05-05T00:08:37.680Z,100388.28
2023-05-05T00:11:04.412Z,100382.47
2023-05-05T00:13:31.393Z,100379.06
2023-05-05T00:15:58.375Z,100384.72
2023-05-05T00:18:25.340Z,100378.06
2023-05-05T00:20:52.384Z,100380.06
2023-05-05T00:23:21.045Z,100377.28
2023-05-05T00:25:48.115Z,100380.28
2023-05-05T00:28:14.927Z,100375.47
2023-05-05T00:30:42.128Z,100368.66
2023-05-05T00:33:11.158Z,100366.25
2023-05-05T00:35:38.382Z,100359.69
2023-05-05T00:38:05.308Z,100358.88
2023-05-05T00:40:32.131Z,100355.47
2023-05-05T00:42:59.767Z,100349.63
2023-05-05T00:45:26.778Z,100350.63
2023-05-05T00:47:57.066Z,100351.44
2023-05-05T00:50:27.974Z,100349.47
2023-05-05T00:52:57.651Z,100345.84
2023-05-05T00:55:24.553Z,100352.03
2023-05-05T00:57:52.147Z,100350.06
2023-05-05T01:00:19.031Z,100344.41
2023-05-05T01:02:46.278Z,100354.03
2023-05-05T01:05:15.170Z,100347.03
2023-05-05T01:08:00.835Z,100350.03
2023-05-05T01:10:42.563Z,100341.78
2023-05-05T01:13:40.149Z,100344.59
2023-05-05T01:16:20.896Z,100342.38
2023-05-05T01:18:58.840Z,100334.97
2023-05-05T01:21:36.039Z,100343.75
2023-05-05T01:24:28.249Z,100339.34
2023-05-05T01:27:22.286Z,100338.16
2023-05-05T01:30:10.521Z,100340.13
2023-05-05T01:32:44.750Z,100337.91
2023-05-05T01:35:31.914Z,100351.53
2023-05-05T01:38:04.521Z,100345.94
2023-05-05T01:40:35.112Z,100353.31
2023-05-05T01:43:03.791Z,100340.13
2023-05-05T01:45:35.163Z,100350.53
2023-05-05T01:48:03.974Z,100352.72
2023-05-05T01:50:32.057Z,100352.91
2023-05-05T01:52:59.667Z,100352.50
2023-05-05T01:55:27.668Z,100352.44
2023-05-05T01:57:57.078Z,100351.25
2023-05-05T02:00:25.434Z,100344.25
2023-05-05T02:02:54.911Z,100348.06
2023-05-05T02:05:24.510Z,100351.03
2023-05-05T02:07:53.158Z,100342.41
2023-05-05T02:10:41.029Z,100335.56
2023-05-05T02:13:12.540Z,100342.97
2023-05-05T02:15:40.582Z,100342.97
2023-05-05T02:18:08.210Z,100348.75
2023-05-05T02:20:38.069Z,100337.97
2023-05-05T02:23:06.493Z,100335.63
2023-05-05T02:25:43.804Z,100335.22
2023-05-05T02:28:23.063Z,100332.00
2023-05-05T02:30:57.700Z,100332.78
2023-05-05T02:33:29.161Z,100334.78
2023-05-05T02:35:58.111Z,100331.56
2023-05-05T02:38:29.458Z,100336.78
2023-05-05T02:41:02.207Z,100333.97
2023-05-05T02:43:33.142Z,100333.19
2023-05-05T02:46:00.598Z,100333.38
2023-05-05T02:48:29.792Z,100332.38
2023-05-05T02:50:59.464Z,100338.38
2023-05-05T02:53:34.142Z,100337.16
2023-05-05T02:56:37.956Z,100343.09
2023-05-05T02:59:18.043Z,100342.50
2023-05-05T03:02:12.523Z,100341.63
2023-05-05T03:04:52.438Z,100337.06
2023-05-05T03:07:30.582Z,100341.03
2023-05-05T03:10:06.453Z,100344.44
2023-05-05T03:12:57.487Z,100342.97
2023-05-05T03:15:53.010Z,100339.34
2023-05-05T03:18:25.139Z,100335.34
2023-05-05T03:20:59.253Z,100342.97
2023-05-05T03:23:26.454Z,100342.69
2023-05-05T03:25:57.642Z,100338.50
2023-05-05T03:28:42.937Z,100337.66
2023-05-05T03:31:18.472Z,100344.84
2023-05-05T03:33:49.759Z,100341.63
2023-05-05T03:36:18.720Z,100348.81
2023-05-05T03:38:45.760Z,100348.81
2023-05-05T03:41:12.534Z,100346.88
2023-05-05T03:43:39.491Z,100345.25
2023-05-05T03:46:08.205Z,100350.03
2023-05-05T03:48:35.211Z,100356.44
2023-05-05T03:51:02.310Z,100362.25
2023-05-05T03:53:31.431Z,100360.00
2023-05-05T03:56:00.264Z,100361.28
2023-05-05T03:58:27.062Z,100360.25
2023-05-05T04:00:53.922Z,100358.88
2023-05-05T04:03:21.314Z,100362.53
2023-05-05T04:05:48.426Z,100357.16
2023-05-05T04:08:15.581Z,100359.50
2023-05-05T04:10:44.754Z,100367.91
2023-05-05T04:13:11.982Z,100363.34
2023-05-05T04:15:43.922Z,100371.31
2023-05-05T04:18:10.874Z,100372.13
2023-05-05T04:20:37.887Z,100370.59
2023-05-05T04:23:04.664Z,100369.59
2023-05-05T04:25:31.681Z,100365.63
2023-05-05T04:27:58.527Z,100363.47
2023-05-05T04:30:25.300Z,100369.13
2023-05-05T04:32:52.314Z,100377.38
2023-05-05T04:35:19.554Z,100372.09
2023-05-05T04:37:46.788Z,100372.25
2023-05-05T04:40:15.115Z,100377.44
2023-05-05T04:42:41.839Z,100382.88
2023-05-05T04:45:10.196Z,100380.88
2023-05-05T04:47:38.849Z,100384.69
2023-05-05T04:50:08.803Z,100399.34
2023-05-05T04:52:35.966Z,100397.38
2023-05-05T04:55:02.772Z,100408.56
2023-05-05T04:57:31.447Z,100403.78
2023-05-05T04:59:59.619Z,100399.59
2023-05-05T05:02:27.139Z,100406.22
2023-05-05T05:04:56.072Z,100413.25
2023-05-05T05:07:22.971Z,100414.50
2023-05-05T05:09:51.612Z,100414.13
2023-05-05T05:12:18.525Z,100411.13
2023-05-05T05:14:45.283Z,100417.94
2023-05-05T05:17:12.270Z,100413.13
2023-05-05T05:19:39.282Z,100424.13
2023-05-05T05:22:06.335Z,100419.25
2023-05-05T05:24:36.850Z,100419.09
2023-05-05T05:27:09.792Z,100419.75
2023-05-05T05:29:39.463Z,100425.19
2023-05-05T05:32:06.588Z,100418.09
2023-05-05T05:34:33.715Z,100431.34
2023-05-05T05:37:01.332Z,100431.38
2023-05-05T05:39:28.304Z,100423.09
2023-05-05T05:41:55.434Z,100430.59
2023-05-05T05:44:22.208Z,100437.22
2023-05-05T05:46:48.962Z,100437.34
2023-05-05T05:49:17.118Z,100436.72
2023-05-05T05:51:43.777Z,100434.09
2023-05-05T05:54:10.552Z,100438.44
2023-05-05T05:56:37.460Z,100437.88
2023-05-05T05:59:08.051Z,100448.97
2023-05-05T06:01:35.709Z,100447.59
2023-05-05T06:04:03.174Z,100446.75
2023-05-05T06:06:31.636Z,100451.81
2023-05-05T06:08:58.680Z,100451.00
2023-05-05T06:11:26.587Z,100446.22
2023-05-05T06:13:53.812Z,100451.97
2023-05-05T06:16:23.282Z,100450.41
2023-05-05T06:18:50.848Z,100453.88
2023-05-05T06:21:20.684Z,100452.31
2023-05-05T06:23:49.882Z,100454.94
2023-05-05T06:26:19.849Z,100457.31
2023-05-05T06:28:46.667Z,100446.84
2023-05-05T06:31:14.478Z,100453.84
2023-05-05T06:33:41.520Z,100447.66
2023-05-05T06:36:08.515Z,100461.75
2023-05-05T06:38:35.303Z,100456.47
2023-05-05T06:41:08.789Z,100454.66
2023-05-05T06:43:35.847Z,100453.63
2023-05-05T06:46:11.242Z,100452.34
2023-05-05T06:48:38.163Z,100448.63
2023-05-05T06:51:07.754Z,100458.16
2023-05-05T06:53:37.761Z,100455.41
2023-05-05T06:56:04.706Z,100457.28
2023-05-05T06:58:31.733Z,100457.16
2023-05-05T07:00:58.676Z,100458.94
2023-05-05T07:03:28.429Z,100457.47
2023-05-05T07:05:55.279Z,100467.22
2023-05-05T07:08:25.120Z,100466.66
2023-05-05T07:10:51.898Z,100461.50
2023-05-05T07:13:22.848Z,100472.00
2023-05-05T07:15:51.962Z,100463.56
2023-05-05T07:18:20.495Z,100462.31
2023-05-05T07:20:47.627Z,100458.47
2023-05-05T07:23:14.338Z,100451.13
2023-05-05T07:25:41.134Z,100451.97
2023-05-05T07:28:07.969Z,100440.88
2023-05-05T07:30:34.667Z,100445.97
2023-05-05T07:33:04.033Z,100448.97
2023-05-05T07:35:30.849Z,100442.63
2023-05-05T07:37:57.536Z,100440.16
2023-05-05T07:40:24.368Z,100444.88
2023-05-05T07:42:51.793Z,100436.41
2023-05-05T07:45:18.852Z,100441.19
2023-05-05T07:47:46.849Z,100437.63
2023-05-05T07:50:13.681Z,100433.72
2023-05-05T07:55:10.627Z,100437.88
2023-05-05T07:57:37.518Z,100440.31
2023-05-05T08:00:04.708Z,100439.81
2023-05-05T08:02:38.953Z,100442.94
2023-05-05T08:05:08.583Z,100441.19
2023-05-05T08:07:36.741Z,100446.44
2023-05-05T08:10:03.591Z,100439.63
2023-05-05T08:12:30.975Z,100442.88
2023-05-05T08:14:57.733Z,100445.75
2023-05-05T08:17:27.018Z,100439.03
2023-05-05T08:19:53.836Z,100440.09
2023-05-05T08:22:21.724Z,100445.88
2023-05-05T08:24:48.560Z,100443.34
2023-05-05T08:27:15.470Z,100447.28
2023-05-05T08:29:44.548Z,100443.88
2023-05-05T08:32:13.859Z,100429.72
2023-05-05T08:34:40.684Z,100443.72
2023-05-05T08:37:09.898Z,100444.75
2023-05-05T08:39:36.715Z,100445.13
2023-05-05T08:42:04.161Z,100444.09
2023-05-05T08:44:31.309Z,100440.69
2023-05-05T08:47:00.600Z,100429.25
2023-05-05T08:49:31.730Z,100434.03
2023-05-05T08:52:01.791Z,100430.75
2023-05-05T08:54:34.719Z,100428.16
2023-05-05T08:57:02.878Z,100433.28
2023-05-05T08:59:33.116Z,100425.00
2023-05-05T09:02:02.015Z,100431.00
2023-05-05T09:04:29.127Z,100428.72
2023-05-05T09:06:58.868Z,100432.81
2023-05-05T09:09:26.467Z,100425.72
2023-05-05T09:11:53.902Z,100422.88
2023-05-05T09:14:20.774Z,100418.19
2023-05-05T09:16:47.598Z,100422.06
2023-05-05T09:19:14.463Z,100419.88
2023-05-05T09:21:49.279Z,100416.88
2023-05-05T09:24:16.259Z,100404.25
2023-05-05T09:26:47.002Z,100404.91
2023-05-05T09:29:23.557Z,100401.72
2023-05-05T09:32:08.988Z,100396.34
2023-05-05T09:34:37.294Z,100400.22
2023-05-05T09:37:04.545Z,100398.75
2023-05-05T09:39:31.471Z,100389.84
2023-05-05T09:41:58.647Z,100382.69
2023-05-05T09:44:36.913Z,100383.91
2023-05-05T09:47:09.423Z,100377.72
2023-05-05T09:49:39.515Z,100382.69
2023-05-05T09:52:14.952Z,100380.09
2023-05-05T09:54:42.883Z,100378.53
2023-05-05T09:57:27.520Z,100371.16
2023-05-05T10:00:02.221Z,100380.44
2023-05-05T10:02:40.739Z,100373.28
2023-05-05T10:05:13.743Z,100368.03
2023-05-05T10:07:43.866Z,100372.63
2023-05-05T10:10:15.292Z,100373.03
2023-05-05T10:12:46.688Z,100379.94
2023-05-05T10:15:17.557Z,100365.97
2023-05-05T10:18:08.265Z,100365.22
2023-05-05T10:20:38.756Z,100371.00
2023-05-05T10:23:08.214Z,100370.47
2023-05-05T10:25:47.328Z,100367.06
2023-05-05T10:28:23.226Z,100363.59
2023-05-05T10:30:54.062Z,100362.28
2023-05-05T10:33:31.922Z,100360.19
2023-05-05T10:36:02.588Z,100355.69
2023-05-05T10:38:33.482Z,100353.56
2023-05-05T10:41:02.252Z,100348.56
2023-05-05T10:43:30.877Z,100348.28
2023-05-05T10:45:58.726Z,100343.28
2023-05-05T10:48:50.820Z,100349.88
2023-05-05T10:51:38.387Z,100340.34
2023-05-05T10:54:20.375Z,100329.59
2023-05-05T10:56:49.867Z,100329.56
2023-05-05T10:59:39.689Z,100330.63
2023-05-05T11:02:26.495Z,100333.25
2023-05-05T11:05:22.470Z,100342.00
2023-05-05T11:07:51.221Z,100343.28
2023-05-05T11:10:20.791Z,100337.72
2023-05-05T11:13:11.042Z,100341.44
2023-05-05T11:15:38.264Z,100330.38
2023-05-05T11:18:08.007Z,100336.16
2023-05-05T11:20:46.513Z,100339.06
2023-05-05T11:23:16.016Z,100333.53
2023-05-05T11:25:45.930Z,100330.63
2023-05-05T11:28:19.774Z,100327.19
2023-05-05T11:30:56.906Z,100320.88
2023-05-05T11:33:36.056Z,100321.38
2023-05-05T11:36:08.067Z,100322.44
2023-05-05T11:38:57.022Z,100316.13
2023-05-05T11:41:33.373Z,100313.47
2023-05-05T11:44:21.094Z,100297.13
2023-05-05T11:47:01.100Z,100306.63
2023-05-05T11:49:38.649Z,100300.53
2023-05-05T11:52:13.497Z,100301.31
2023-05-05T11:54:51.876Z,100298.69
2023-05-05T11:57:27.052Z,100296.31
2023-05-05T11:59:59.205Z,100299.78
2023-05-05T12:02:28.098Z,100295.50
2023-05-05T12:04:56.085Z,100294.72
2023-05-05T12:07:25.871Z,100285.47
2023-05-05T12:09:53.889Z,100284.41
2023-05-05T12:12:21.622Z,100281.75
2023-05-05T12:14:53.220Z,100280.44
2023-05-05T12:17:21.751Z,100269.09
2023-05-05T12:19:53.502Z,100274.91
2023-05-05T12:22:25.002Z,100283.09
2023-05-05T12:24:56.305Z,100279.69
2023-05-05T12:27:24.058Z,100268.59
2023-05-05T12:29:51.735Z,100268.09
2023-05-05T12:32:24.042Z,100271.75
2023-05-05T12:34:55.418Z,100267.81
2023-05-05T12:37:23.700Z,100255.38
2023-05-05T12:39:51.447Z,100269.66
2023-05-05T12:42:18.940Z,100258.03
2023-05-05T12:44:46.789Z,100262.25
2023-05-05T12:47:14.495Z,100256.44
2023-05-05T12:49:52.665Z,100254.28
2023-05-05T12:52:20.876Z,100249.00
2023-05-05T12:54:57.699Z,100253.78
2023-05-05T12:57:25.898Z,100240.84
2023-05-05T12:59:53.581Z,100242.38
2023-05-05T13:02:21.772Z,100239.75
2023-05-05T13:04:50.452Z,100236.34
2023-05-05T13:07:19.754Z,100225.00
2023-05-05T13:09:48.245Z,100226.53
2023-05-05T13:12:17.699Z,100224.47
2023-05-05T13:14:45.019Z,100218.38
2023-05-05T13:17:12.788Z,100215.19
2023-05-05T13:19:46.547Z,100221.47
2023-05-05T13:22:14.405Z,100210.41
2023-05-05T13:24:51.807Z,100212.25
2023-05-05T13:27:21.005Z,100206.94
2023-05-05T13:29:48.088Z,100208.78
2023-05-05T13:32:15.968Z,100196.16
2023-05-05T13:34:44.193Z,100197.75
2023-05-05T13:37:11.227Z,100187.75
2023-05-05T13:39:38.223Z,100178.75
2023-05-05T13:42:05.593Z,100179.28
2023-05-05T13:44:32.583Z,100176.63
2023-05-05T13:47:00.660Z,100172.41
2023-05-05T13:49:27.970Z,100170.81
2023-05-05T13:51:56.273Z,100175.56
2023-05-05T13:54:23.336Z,100163.34
2023-05-05T13:56:50.235Z,100167.59
2023-05-05T13:59:19.594Z,100162.31
2023-05-05T14:01:46.435Z,100158.38
2023-05-05T14:04:13.330Z,100155.44
2023-05-05T14:06:40.257Z,100155.44
2023-05-05T14:09:07.992Z,100149.66
2023-05-05T14:11:34.855Z,100150.63
2023-05-05T14:14:04.382Z,100144.75
2023-05-05T14:16:31.405Z,100140.53
2023-05-05T14:18:58.265Z,100146.84
2023-05-05T14:21:25.822Z,100142.34
2023-05-05T14:23:52.691Z,100142.56
2023-05-05T14:26:19.551Z,100140.44
2023-05-05T14:28:48.994Z,100133.31
2023-05-05T14:31:17.503Z,100137.81
2023-05-05T14:33:44.327Z,100141.78
2023-05-05T14:36:12.490Z,100129.97
2023-05-05T14:38:39.979Z,100132.88
2023-05-05T14:41:06.898Z,100136.03
2023-05-05T14:43:33.774Z,100138.91
2023-05-05T14:46:05.808Z,100124.97
2023-05-05T14:48:33.907Z,100135.03
2023-05-05T14:51:02.573Z,100135.03
2023-05-05T14:53:31.610Z,100127.91
2023-05-05T14:56:00.656Z,100125.78
2023-05-05T14:58:27.603Z,100124.19
2023-05-05T15:00:54.625Z,100120.50
2023-05-05T15:03:21.622Z,100119.94
2023-05-05T15:05:48.552Z,100123.34
2023-05-05T15:08:15.534Z,100116.50
2023-05-05T15:10:42.567Z,100120.72
2023-05-05T15:13:09.558Z,100113.63
2023-05-05T15:15:36.464Z,100117.84
2023-05-05T15:18:03.516Z,100113.13
2023-05-05T15:20:30.775Z,100117.84
2023-05-05T15:22:58.032Z,100110.22
2023-05-05T15:25:25.107Z,100114.19
2023-05-05T15:27:52.013Z,100117.84
2023-05-05T15:30:19.425Z,100120.00
2023-05-05T15:32:46.428Z,100121.09
2023-05-05T15:35:13.313Z,100125.06
2023-05-05T15:37:40.799Z,100120.59
2023-05-05T15:40:08.377Z,100125.38
2023-05-05T15:42:38.798Z,100120.09
2023-05-05T15:45:06.382Z,100118.00
2023-05-05T15:47:33.920Z,100111.13
2023-05-05T15:50:00.854Z,100107.97
2023-05-05T15:52:29.842Z,100115.09
2023-05-05T15:54:56.645Z,100118.78
2023-05-05T15:57:29.926Z,100098.97
2023-05-05T15:59:59.680Z,100107.97
2023-05-05T16:02:26.870Z,100108.50
2023-05-05T16:04:57.864Z,100113.25
2023-05-05T16:07:27.890Z,100105.31
2023-05-05T16:09:56.681Z,100095.81
2023-05-05T16:12:23.512Z,100097.94
2023-05-05T16:14:50.469Z,100097.41
2023-05-05T16:17:17.227Z,100100.34
2023-05-05T16:19:44.525Z,100096.38
2023-05-05T16:22:18.350Z,100097.44
2023-05-05T16:24:47.277Z,100094.28
2023-05-05T16:27:17.021Z,100089.00
2023-05-05T16:29:43.916Z,100095.09
2023-05-05T16:32:11.215Z,100089.81
2023-05-05T16:34:39.448Z,100092.75
2023-05-05T16:37:06.658Z,100094.59
2023-05-05T16:39:34.068Z,100090.13
2023-05-05T16:42:01.121Z,100090.66
2023-05-05T16:44:28.037Z,100099.63
2023-05-05T16:46:54.847Z,100087.00
2023-05-05T16:49:24.145Z,100084.88
2023-05-05T16:51:53.656Z,100090.69
2023-05-05T16:54:20.614Z,100084.88
2023-05-05T16:56:47.369Z,100086.47
2023-05-05T16:59:16.428Z,100086.53
2023-05-05T17:01:43.608Z,100088.63
2023-05-05T17:04:11.855Z,100084.44
2023-05-05T17:06:38.781Z,100080.19
2023-05-05T17:09:06.370Z,100081.53
2023-05-05T17:11:33.198Z,100080.25
2023-05-05T17:14:00.008Z,100080.28
2023-05-05T17:16:26.969Z,100080.81
2023-05-05T17:18:54.854Z,100088.72
2023-05-05T17:21:21.595Z,100083.19
2023-05-05T17:23:48.450Z,100089.78
2023-05-05T17:26:15.369Z,100092.47
2023-05-05T17:28:42.147Z,100096.66
2023-05-05T17:31:09.055Z,100096.69
2023-05-05T17:33:35.928Z,100095.63
2023-05-05T17:36:02.790Z,100092.50
2023-05-05T17:38:29.674Z,100094.06
2023-05-05T17:40:56.836Z,100095.66
2023-05-05T17:43:23.699Z,100097.75
2023-05-05T17:45:50.605Z,100094.59
2023-05-05T17:48:17.896Z,100094.59
2023-05-05T17:50:45.132Z,100100.13
2023-05-05T17:53:11.920Z,100097.25
2023-05-05T17:55:38.821Z,100102.50
2023-05-05T17:58:06.019Z,100111.44
2023-05-05T18:00:32.868Z,100107.22
2023-05-05T18:03:00.834Z,100112.50
2023-05-05T18:05:27.773Z,100104.31
2023-05-05T18:07:54.585Z,100109.81
2023-05-05T18:10:21.414Z,100106.63
2023-05-05T18:12:48.442Z,100105.56
2023-05-05T18:15:15.344Z,100109.25
2023-05-05T18:17:42.470Z,100107.13
2023-05-05T18:20:10.324Z,100107.88
2023-05-05T18:22:37.274Z,100107.09
2023-05-05T18:25:05.942Z,100109.16
2023-05-05T18:27:36.047Z,100111.78
2023-05-05T18:30:04.819Z,100103.56
2023-05-05T18:32:33.989Z,100107.75
2023-05-05T18:35:00.984Z,100115.88
2023-05-05T18:37:28.095Z,100111.63
2023-05-05T18:39:54.979Z,100123.19
2023-05-05T18:42:21.708Z,100115.78
2023-05-05T18:44:48.498Z,100124.69
2023-05-05T18:47:15.526Z,100123.84
2023-05-05T18:49:42.408Z,100129.88
2023-05-05T18:52:09.252Z,100128.78
2023-05-05T18:54:37.856Z,100126.44
2023-05-05T18:57:04.815Z,100121.38
2023-05-05T18:59:31.734Z,100128.19
2023-05-05T19:01:59.637Z,100127.91
2023-05-05T19:04:31.464Z,100130.25
2023-05-05T19:06:59.679Z,100121.75
2023-05-05T19:09:26.610Z,100121.75
2023-05-05T19:11:53.485Z,100122.53
2023-05-05T19:14:26.498Z,100122.19
2023-05-05T19:16:56.015Z,100130.56
2023-05-05T19:19:23.483Z,100128.13
2023-05-05T19:21:50.540Z,100124.13
2023-05-05T19:24:17.362Z,100134.03
2023-05-05T19:26:44.321Z,100130.81
2023-05-05T19:29:12.032Z,100121.78
2023-05-05T19:31:39.163Z,100130.63
2023-05-05T19:34:06.461Z,100129.03
2023-05-05T19:36:33.865Z,100122.66
2023-05-05T19:39:04.749Z,100129.94
2023-05-05T19:41:31.880Z,100120.38
2023-05-05T19:43:58.885Z,100126.16
2023-05-05T19:46:26.646Z,100133.47
2023-05-05T19:48:54.250Z,100128.69
2023-05-05T19:51:21.256Z,100121.03
2023-05-05T19:53:48.256Z,100124.91
2023-05-05T19:56:15.094Z,100125.13
2023-05-05T19:58:59.259Z,100118.19
2023-05-05T20:01:28.617Z,100122.72
2023-05-05T20:03:56.576Z,100122.16
2023-05-05T20:06:24.177Z,100118.97
2023-05-05T20:08:51.444Z,100113.97
2023-05-05T20:11:19.759Z,100110.50
2023-05-05T20:13:46.994Z,100103.66
2023-05-05T20:16:14.923Z,100115.66
2023-05-05T20:18:44.064Z,100115.13
2023-05-05T20:21:11.114Z,100117.19
2023-05-05T20:23:38.332Z,100112.44
2023-05-05T20:26:05.557Z,100106.63
2023-05-05T20:28:33.112Z,100098.69
2023-05-05T20:31:01.071Z,100095.53
2023-05-05T20:33:29.280Z,100090.97
2023-05-05T20:35:56.444Z,100086.22
2023-05-05T20:38:23.401Z,100085.66
2023-05-05T20:40:52.114Z,100085.13
2023-05-05T20:43:19.310Z,100083.75
2023-05-05T20:45:46.649Z,100080.84
2023-05-05T20:48:13.491Z,100081.34
2023-05-05T20:50:41.515Z,100078.13
2023-05-05T20:53:09.603Z,100081.78
2023-05-05T20:55:36.601Z,100079.94
2023-05-05T20:58:04.563Z,100077.91
2023-05-05T21:00:32.473Z,100076.00
2023-05-05T21:02:59.424Z,100077.81
2023-05-05T21:05:26.885Z,100070.19
2023-05-05T21:07:54.664Z,100074.91
2023-05-05T21:10:21.700Z,100075.38
2023-05-05T21:12:49.301Z,100074.81
2023-05-05T21:15:16.997Z,100077.66
2023-05-05T21:17:43.985Z,100070.78
2023-05-05T21:20:11.671Z,100073.84
2023-05-05T21:22:39.009Z,100073.06
2023-05-05T21:25:20.006Z,100066.88
2023-05-05T21:27:48.565Z,100072.44
2023-05-05T21:30:15.820Z,100073.69
2023-05-05T21:32:43.096Z,100072.09
2023-05-05T21:35:10.846Z,100068.38
2023-05-05T21:37:39.195Z,100068.63
2023-05-05T21:40:10.836Z,100061.22
2023-05-05T21:42:37.987Z,100059.88
2023-05-05T21:45:05.058Z,100064.56
2023-05-05T21:47:32.156Z,100067.97
2023-05-05T21:49:59.443Z,100061.38
2023-05-05T21:52:26.251Z,100054.03
2023-05-05T21:54:53.177Z,100054.81
2023-05-05T21:57:20.142Z,100064.50
2023-05-05T21:59:47.088Z,100053.22
2023-05-05T22:02:13.983Z,100060.50
2023-05-05T22:04:40.964Z,100060.19
2023-05-05T22:07:07.787Z,100060.69
2023-05-05T22:09:34.690Z,100063.97
2023-05-05T22:12:02.593Z,100066.28
2023-05-05T22:14:33.150Z,100068.31
2023-05-05T22:17:00.095Z,100066.75
2023-05-05T22:19:26.930Z,100063.53
2023-05-05T22:21:53.796Z,100061.41
2023-05-05T22:24:20.538Z,100062.38
2023-05-05T22:26:47.360Z,100066.47
2023-05-05T22:29:14.183Z,100067.41
2023-05-05T22:31:41.064Z,100072.78
2023-05-05T22:34:07.952Z,100071.31
2023-05-05T22:36:34.871Z,100070.44
2023-05-05T22:39:01.599Z,100068.72
2023-05-05T22:41:28.428Z,100063.41
2023-05-05T22:43:55.907Z,100062.50
2023-05-05T22:46:22.753Z,100063.53
2023-05-05T22:48:49.660Z,100064.53
2023-05-05T22:51:16.720Z,100071.84
2023-05-05T22:53:44.694Z,100073.91
2023-05-05T22:56:12.153Z,100068.06
2023-05-05T22:58:40.178Z,100064.34
2023-05-05T23:01:08.037Z,100064.25
2023-05-05T23:03:34.879Z,100065.16
2023-05-05T23:06:01.696Z,100070.28
2023-05-05T23:08:28.685Z,100059.69
2023-05-05T23:10:55.926Z,100059.13
2023-05-05T23:13:22.858Z,100058.34
2023-05-05T23:15:49.740Z,100061.63
2023-05-05T23:18:16.526Z,100062.09
2023-05-05T23:20:43.277Z,100054.16
2023-05-05T23:23:10.081Z,100057.97
2023-05-05T23:25:36.889Z,100045.38
2023-05-05T23:28:03.903Z,100046.41
2023-05-05T23:30:30.812Z,100049.25
2023-05-05T23:32:58.014Z,100055.94
2023-05-05T23:35:26.340Z,100051.97
2023-05-05T23:37:53.159Z,100053.22
2023-05-05T23:40:20.392Z,100038.78
2023-05-05T23:42:47.297Z,100040.47
2023-05-05T23:45:14.076Z,100040.38
2023-05-05T23:47:40.952Z,100039.81
2023-05-05T23:50:08.564Z,100046.03
2023-05-05T23:52:35.384Z,100031.06
2023-05-05T23:55:02.178Z,100030.81
2023-05-05T23:57:29.845Z,100027.88
2023-05-05T23:59:56.745Z,100032.75
